KMKT/MKT METAR and TAF weather

Enter ICAO airport designator
Station Type Date Time Source
KMKT METAR 2022/12/04 10:56 UTC NOAA

KMKT 041056Z AUTO 19007KT 10SM CLR M11/M13 A3014 RMK AO2 SLP230 T11061128 FZRANO


Station Type Date Time Source
KMKT Decoded METAR 2022/12/04 10:56 UTC NOAA

Mankato, Mankato Regional Airport, MN, United States (KMKT) 44-13N 093-55W
Dec 04, 2022 - 05:56 AM EST / 2022.12.04 1056 UTC
Wind: from the S (190 degrees) at 8 MPH (7 KT):0
Visibility: 10 mile(s):0
Sky conditions: clear
Temperature: 12.9 F (-10.6 C)
Windchill: 1 F (-17 C):1
Dew Point: 9.0 F (-12.8 C)
Relative Humidity: 83%
Pressure (altimeter): 30.14 in. Hg (1020 hPa)
ob: KMKT 041056Z AUTO 19007KT 10SM CLR M11/M13 A3014 RMK AO2 SLP230 T11061128 FZRANO
cycle: 11

Station Type Date Time Source
KMKT TAF 2022/12/04 12:30 UTC NOAA

TAF KMKT 041128Z 0412/0512 21010KT P6SM SKC
FM050700 17006KT P6SM BKN150
FM051000 33006KT P6SM BKN150

Example: see airport list